createdAt,value
2023-02-23T00:02:52.288Z,99842.33
2023-02-23T00:07:56.116Z,99840.31
2023-02-23T00:12:59.592Z,99835.38
2023-02-23T00:18:04.672Z,99837.65
2023-02-23T00:23:07.571Z,99830.96
2023-02-23T00:28:10.454Z,99830.24
2023-02-23T00:33:13.495Z,99827.46
2023-02-23T00:38:16.373Z,99815.30
2023-02-23T00:43:20.145Z,99821.25
2023-02-23T00:48:22.987Z,99824.47
2023-02-23T00:53:27.390Z,99825.63
2023-02-23T00:58:31.510Z,99825.42
2023-02-23T01:03:34.552Z,99826.41
2023-02-23T01:08:44.227Z,99821.25
2023-02-23T01:13:48.688Z,99821.93
2023-02-23T01:18:51.725Z,99824.31
2023-02-23T01:23:55.438Z,99820.39
2023-02-23T01:29:02.278Z,99818.84
2023-02-23T01:34:06.566Z,99813.70
2023-02-23T01:39:17.571Z,99811.15
2023-02-23T01:44:20.406Z,99809.83
2023-02-23T01:49:29.728Z,99802.34
2023-02-23T01:54:42.526Z,99801.67
2023-02-23T01:59:49.133Z,99800.51
2023-02-23T02:04:52.458Z,99799.20
2023-02-23T02:10:13.822Z,99801.04
2023-02-23T02:15:19.771Z,99800.70
2023-02-23T02:21:21.031Z,99799.58
2023-02-23T02:27:21.769Z,99793.59
2023-02-23T02:32:55.441Z,99792.37
2023-02-23T02:38:36.194Z,99792.44
2023-02-23T02:44:17.901Z,99786.41
2023-02-23T02:49:27.820Z,99783.41
2023-02-23T02:54:44.131Z,99781.41
2023-02-23T03:00:08.551Z,99787.23
2023-02-23T03:05:35.497Z,99785.90
2023-02-23T03:11:17.677Z,99785.27
2023-02-23T03:16:48.391Z,99782.83
2023-02-23T03:22:26.134Z,99780.23
2023-02-23T03:27:53.679Z,99779.70
2023-02-23T03:33:22.851Z,99774.61
2023-02-23T03:39:16.905Z,99775.44
2023-02-23T03:44:48.195Z,99774.11
2023-02-23T03:50:10.078Z,99775.89
2023-02-23T03:55:40.100Z,99775.41
2023-02-23T04:01:08.631Z,99775.45
2023-02-23T04:06:34.392Z,99772.99
2023-02-23T04:12:23.075Z,99776.87
2023-02-23T04:17:29.031Z,99780.20
2023-02-23T04:22:31.943Z,99777.09
2023-02-23T04:27:36.513Z,99769.08
2023-02-23T04:32:39.566Z,99768.35
2023-02-23T04:37:42.583Z,99763.09
2023-02-23T04:42:45.493Z,99759.89
2023-02-23T04:47:48.496Z,99757.00
2023-02-23T04:52:53.331Z,99754.64
2023-02-23T04:58:02.034Z,99753.07
2023-02-23T05:03:05.101Z,99751.72
2023-02-23T05:08:07.994Z,99755.34
2023-02-23T05:13:11.075Z,99758.80
2023-02-23T05:18:14.004Z,99758.92
2023-02-23T05:23:16.905Z,99758.11
2023-02-23T05:28:19.789Z,99756.41
2023-02-23T05:33:22.654Z,99759.67
2023-02-23T05:38:27.287Z,99766.49
2023-02-23T05:43:30.164Z,99771.83
2023-02-23T05:48:34.075Z,99776.17
2023-02-23T05:53:37.102Z,99776.88
2023-02-23T05:58:39.941Z,99777.23
2023-02-23T06:03:43.015Z,99777.02
2023-02-23T06:08:46.244Z,99777.36
2023-02-23T06:13:49.758Z,99777.36
2023-02-23T06:18:52.640Z,99776.42
2023-02-23T06:23:55.580Z,99778.17
2023-02-23T06:28:58.507Z,99777.86
2023-02-23T06:34:01.388Z,99778.36
2023-02-23T06:39:04.934Z,99778.65
2023-02-23T06:44:07.817Z,99783.77
2023-02-23T06:49:12.320Z,99785.15
2023-02-23T06:54:16.241Z,99783.88
2023-02-23T06:59:19.135Z,99785.89
2023-02-23T07:04:22.061Z,99789.30
2023-02-23T07:09:25.253Z,99790.73
2023-02-23T07:14:28.349Z,99788.79
2023-02-23T07:19:32.516Z,99780.65
2023-02-23T07:24:35.440Z,99779.89
2023-02-23T07:29:38.370Z,99775.19
2023-02-23T07:34:41.286Z,99775.85
2023-02-23T07:39:44.334Z,99772.92
2023-02-23T07:44:47.327Z,99776.30
2023-02-23T07:49:50.251Z,99778.09
2023-02-23T07:54:53.273Z,99772.90
2023-02-23T07:59:56.241Z,99769.14
2023-02-23T08:05:00.154Z,99765.84
2023-02-23T08:10:03.855Z,99764.92
2023-02-23T08:15:08.387Z,99758.15
2023-02-23T08:20:11.687Z,99760.60
2023-02-23T08:25:14.644Z,99760.77
2023-02-23T08:30:19.969Z,99752.13
2023-02-23T08:35:23.004Z,99750.35
2023-02-23T08:40:26.262Z,99747.29
2023-02-23T08:45:29.466Z,99746.34
2023-02-23T08:50:32.486Z,99743.14
2023-02-23T08:55:35.722Z,99736.02
2023-02-23T09:00:38.889Z,99731.29
2023-02-23T09:05:41.808Z,99728.05
2023-02-23T09:10:45.164Z,99732.45
2023-02-23T09:15:48.242Z,99731.60
2023-02-23T09:20:51.289Z,99726.73
2023-02-23T09:25:54.156Z,99722.30
2023-02-23T09:30:57.761Z,99719.10
2023-02-23T09:36:00.855Z,99719.52
2023-02-23T09:41:07.188Z,99720.14
2023-02-23T09:46:34.063Z,99716.70
2023-02-23T09:51:42.181Z,99717.67
2023-02-23T09:56:49.895Z,99715.98
2023-02-23T10:02:05.566Z,99708.83
2023-02-23T10:07:21.568Z,99704.29
2023-02-23T10:12:50.364Z,99696.44
2023-02-23T10:18:46.542Z,99687.66
2023-02-23T10:24:04.036Z,99683.04
2023-02-23T10:29:21.171Z,99681.55
2023-02-23T10:34:26.887Z,99675.18
2023-02-23T10:39:32.563Z,99666.95
2023-02-23T10:44:35.539Z,99663.57
2023-02-23T10:49:46.958Z,99659.41
2023-02-23T10:54:51.870Z,99655.17
2023-02-23T11:00:33.050Z,99644.97
2023-02-23T11:05:53.011Z,99634.02
2023-02-23T11:11:01.287Z,99622.44
2023-02-23T11:16:13.483Z,99617.40
2023-02-23T11:21:33.840Z,99608.86
2023-02-23T11:26:43.514Z,99597.48
2023-02-23T11:31:58.810Z,99589.16
2023-02-23T11:37:31.203Z,99583.52
2023-02-23T11:42:34.142Z,99575.95
2023-02-23T11:47:44.674Z,99562.54
2023-02-23T11:53:02.813Z,99551.08
2023-02-23T11:58:32.337Z,99544.04
2023-02-23T12:03:36.471Z,99539.78
2023-02-23T12:08:49.094Z,99533.66
2023-02-23T12:14:12.553Z,99523.48
2023-02-23T12:19:35.625Z,99519.91
2023-02-23T12:24:44.355Z,99518.30
2023-02-23T12:30:18.392Z,99509.07
2023-02-23T12:35:31.112Z,99504.03
2023-02-23T12:40:39.027Z,99496.80
2023-02-23T12:46:23.158Z,99497.54
2023-02-23T12:51:51.701Z,99490.75
2023-02-23T12:57:11.319Z,99480.30
2023-02-23T13:02:38.963Z,99473.16
2023-02-23T13:08:14.755Z,99467.40
2023-02-23T13:13:50.573Z,99464.02
2023-02-23T13:19:05.951Z,99454.98
2023-02-23T13:24:19.463Z,99451.34
2023-02-23T13:29:36.313Z,99444.85
2023-02-23T13:34:52.713Z,99433.05
2023-02-23T13:40:01.537Z,99423.00
2023-02-23T13:45:25.596Z,99418.03
2023-02-23T13:50:46.659Z,99415.25
2023-02-23T13:55:51.819Z,99415.06
2023-02-23T14:01:39.596Z,99410.36
2023-02-23T14:07:03.964Z,99404.02
2023-02-23T14:12:40.297Z,99403.59
2023-02-23T14:17:44.282Z,99402.14
2023-02-23T14:23:21.039Z,99398.96
2023-02-23T14:28:33.848Z,99396.56
2023-02-23T14:33:42.761Z,99391.99
2023-02-23T14:38:48.220Z,99390.18
2023-02-23T14:44:12.267Z,99380.25
2023-02-23T14:49:22.690Z,99375.80
2023-02-23T14:54:40.746Z,99369.40
2023-02-23T14:59:44.362Z,99361.89
2023-02-23T15:04:47.465Z,99364.55
2023-02-23T15:09:56.204Z,99357.69
2023-02-23T15:15:02.451Z,99349.27
2023-02-23T15:20:16.622Z,99344.89
2023-02-23T15:25:39.673Z,99334.10
2023-02-23T15:30:48.710Z,99331.45
2023-02-23T15:36:13.617Z,99319.21
2023-02-23T15:41:33.147Z,99313.66
2023-02-23T15:46:37.884Z,99312.23
2023-02-23T15:51:48.784Z,99307.62
2023-02-23T15:56:58.743Z,99301.52
2023-02-23T16:02:03.861Z,99298.38
2023-02-23T16:07:28.179Z,99296.11
2023-02-23T16:12:36.373Z,99295.77
2023-02-23T16:17:46.505Z,99288.77
2023-02-23T16:22:53.624Z,99281.98
2023-02-23T16:28:03.375Z,99272.20
2023-02-23T16:33:12.220Z,99264.63
2023-02-23T16:38:35.945Z,99256.05
2023-02-23T16:43:38.840Z,99255.27
2023-02-23T16:48:41.763Z,99257.80
2023-02-23T16:53:45.070Z,99253.86
2023-02-23T16:59:01.067Z,99249.77
2023-02-23T17:04:03.977Z,99248.48
2023-02-23T17:09:06.874Z,99243.48
2023-02-23T17:14:21.910Z,99241.79
2023-02-23T17:19:26.014Z,99235.29
2023-02-23T17:24:29.156Z,99231.60
2023-02-23T17:29:32.232Z,99233.54
2023-02-23T17:34:35.941Z,99227.29
2023-02-23T17:39:41.009Z,99223.39
2023-02-23T17:44:44.284Z,99211.86
2023-02-23T17:49:47.524Z,99209.59
2023-02-23T17:54:50.537Z,99205.48
2023-02-23T17:59:53.572Z,99197.77
2023-02-23T18:04:56.441Z,99185.96
2023-02-23T18:09:59.332Z,99176.55
2023-02-23T18:15:02.298Z,99170.57
2023-02-23T18:20:06.813Z,99170.03
2023-02-23T18:25:25.584Z,99170.73
2023-02-23T18:30:28.477Z,99164.80
2023-02-23T18:35:41.693Z,99162.89
2023-02-23T18:40:45.320Z,99155.00
2023-02-23T18:45:48.177Z,99150.02
2023-02-23T18:50:56.737Z,99144.51
2023-02-23T18:56:05.922Z,99138.46
2023-02-23T19:01:21.239Z,99133.91
2023-02-23T19:06:25.185Z,99127.76
2023-02-23T19:11:32.153Z,99117.73
2023-02-23T19:16:35.478Z,99110.58
2023-02-23T19:21:38.975Z,99100.52
2023-02-23T19:26:41.964Z,99096.93
2023-02-23T19:31:45.086Z,99092.73
2023-02-23T19:36:48.320Z,99084.92
2023-02-23T19:41:51.202Z,99080.02
2023-02-23T19:46:54.099Z,99075.48
2023-02-23T19:51:57.880Z,99067.60
2023-02-23T19:57:00.791Z,99064.07
2023-02-23T20:02:03.704Z,99060.27
2023-02-23T20:07:07.598Z,99046.17
2023-02-23T20:12:10.646Z,99034.64
2023-02-23T20:17:13.879Z,99029.14
2023-02-23T20:22:16.796Z,99022.73
2023-02-23T20:27:22.670Z,99017.67
2023-02-23T20:32:26.084Z,99011.31
2023-02-23T20:37:29.043Z,98997.84
2023-02-23T20:42:31.981Z,98989.65
2023-02-23T20:47:35.222Z,98980.57
2023-02-23T20:52:38.714Z,98972.73
2023-02-23T20:57:41.812Z,98964.85
2023-02-23T21:02:44.702Z,98954.60
2023-02-23T21:07:49.380Z,98955.00
2023-02-23T21:12:53.079Z,98952.34
2023-02-23T21:17:57.709Z,98946.23
2023-02-23T21:23:00.767Z,98945.86
2023-02-23T21:28:03.663Z,98939.30
2023-02-23T21:33:06.674Z,98935.84
2023-02-23T21:38:10.517Z,98928.88
2023-02-23T21:43:13.395Z,98927.92
2023-02-23T21:48:16.247Z,98924.09
2023-02-23T21:53:19.101Z,98920.52
2023-02-23T21:58:23.102Z,98916.71
2023-02-23T22:03:27.371Z,98910.52
2023-02-23T22:08:30.269Z,98904.29
2023-02-23T22:13:33.193Z,98898.02
2023-02-23T22:18:36.131Z,98884.05
2023-02-23T22:23:41.622Z,98874.69
2023-02-23T22:28:45.005Z,98865.46
2023-02-23T22:33:47.940Z,98858.12
2023-02-23T22:38:51.038Z,98855.59
2023-02-23T22:43:53.899Z,98843.95
2023-02-23T22:48:56.753Z,98837.87
2023-02-23T22:53:59.642Z,98829.56
2023-02-23T22:59:08.686Z,98826.52
2023-02-23T23:04:11.603Z,98819.14
2023-02-23T23:09:16.556Z,98811.69
2023-02-23T23:14:19.684Z,98805.98
2023-02-23T23:19:25.862Z,98797.23
2023-02-23T23:24:29.403Z,98791.23
2023-02-23T23:29:32.638Z,98784.91
2023-02-23T23:34:35.673Z,98779.13
2023-02-23T23:39:38.529Z,98776.34
2023-02-23T23:44:41.549Z,98767.17
2023-02-23T23:49:45.389Z,98762.52
2023-02-23T23:54:48.281Z,98760.77
2023-02-23T23:59:51.364Z,98753.08
